createdAt,value
2016-12-31T00:00:35.532Z,0
2016-12-31T00:01:35.502Z,0
2016-12-31T00:02:35.484Z,0
2016-12-31T00:03:35.452Z,0
2016-12-31T00:04:35.434Z,0
2016-12-31T00:05:35.411Z,0
2016-12-31T00:06:35.386Z,0
2016-12-31T00:07:35.358Z,0
2016-12-31T00:08:35.390Z,0
2016-12-31T00:09:35.710Z,0
2016-12-31T00:10:35.288Z,0
2016-12-31T00:11:35.271Z,0
2016-12-31T00:12:35.243Z,0
2016-12-31T00:13:35.224Z,0
2016-12-31T00:14:35.202Z,0
2016-12-31T00:15:35.173Z,0
2016-12-31T00:16:35.147Z,0
2016-12-31T00:17:35.121Z,0
2016-12-31T00:18:35.098Z,0
2016-12-31T00:19:35.076Z,0
2016-12-31T00:20:35.061Z,0
2016-12-31T00:21:35.027Z,0
2016-12-31T00:22:35.004Z,0
2016-12-31T00:23:34.989Z,0
2016-12-31T00:24:35.352Z,0
2016-12-31T00:25:35.336Z,0
2016-12-31T00:26:34.920Z,0
2016-12-31T00:27:34.885Z,0
2016-12-31T00:28:34.865Z,0
2016-12-31T00:29:34.835Z,0
2016-12-31T00:30:35.212Z,0
2016-12-31T00:31:34.791Z,0
2016-12-31T00:32:35.170Z,0
2016-12-31T00:33:34.749Z,0
2016-12-31T00:34:34.718Z,0
2016-12-31T00:35:34.698Z,0
2016-12-31T00:36:34.675Z,0
2016-12-31T00:37:34.648Z,0
2016-12-31T00:38:34.627Z,0
2016-12-31T00:39:34.999Z,0
2016-12-31T00:40:34.576Z,0
2016-12-31T00:41:34.555Z,0
2016-12-31T00:42:35.124Z,0
2016-12-31T00:43:34.547Z,0
2016-12-31T00:44:34.479Z,0
2016-12-31T00:45:34.461Z,0
2016-12-31T00:46:34.433Z,0
2016-12-31T00:47:34.407Z,0
2016-12-31T00:48:34.388Z,0
2016-12-31T00:49:34.365Z,0
2016-12-31T00:50:34.342Z,0
2016-12-31T00:51:34.337Z,0
2016-12-31T00:52:34.294Z,0
2016-12-31T00:53:34.320Z,0
2016-12-31T00:54:34.240Z,0
2016-12-31T00:55:34.247Z,0
2016-12-31T00:56:34.193Z,0
2016-12-31T00:57:34.168Z,0
2016-12-31T00:58:34.156Z,0
2016-12-31T00:59:34.124Z,0
2016-12-31T01:00:34.102Z,0
2016-12-31T01:01:34.076Z,0
2016-12-31T01:02:34.044Z,0
2016-12-31T01:03:34.027Z,0
2016-12-31T01:04:34.038Z,0
2016-12-31T01:05:33.976Z,0
2016-12-31T01:06:34.353Z,0
2016-12-31T01:07:33.929Z,0
2016-12-31T01:08:33.905Z,0
2016-12-31T01:09:33.882Z,0
2016-12-31T01:10:33.858Z,0
2016-12-31T01:11:33.901Z,0
2016-12-31T01:12:33.820Z,0
2016-12-31T01:13:33.781Z,0
2016-12-31T01:14:33.767Z,0
2016-12-31T01:15:33.741Z,0
2016-12-31T01:16:33.740Z,0
2016-12-31T01:17:33.689Z,0
2016-12-31T01:18:33.668Z,0
2016-12-31T01:19:33.641Z,0
2016-12-31T01:20:33.622Z,0
2016-12-31T01:21:33.593Z,0
2016-12-31T01:22:33.569Z,0
2016-12-31T01:23:33.550Z,0
2016-12-31T01:24:33.522Z,0
2016-12-31T01:25:33.499Z,0
2016-12-31T01:26:33.472Z,0
2016-12-31T01:27:33.450Z,0
2016-12-31T01:28:33.425Z,0
2016-12-31T01:29:33.413Z,0
2016-12-31T01:30:33.374Z,0
2016-12-31T01:31:33.352Z,0
2016-12-31T01:32:33.331Z,0
2016-12-31T01:33:33.300Z,0
2016-12-31T01:34:33.281Z,0
2016-12-31T01:35:33.659Z,0
2016-12-31T01:36:33.631Z,0
2016-12-31T01:37:33.207Z,0
2016-12-31T01:38:33.183Z,0
2016-12-31T01:39:33.154Z,0
2016-12-31T01:40:33.141Z,0
2016-12-31T01:41:33.111Z,0
2016-12-31T01:42:33.090Z,0
2016-12-31T01:43:33.062Z,0
2016-12-31T01:44:33.039Z,0
2016-12-31T01:45:33.021Z,0
2016-12-31T01:46:32.987Z,0
2016-12-31T01:47:33.362Z,0
2016-12-31T01:48:33.333Z,0
2016-12-31T01:49:32.918Z,0
2016-12-31T01:50:32.908Z,0
2016-12-31T01:51:32.871Z,0
2016-12-31T01:52:32.846Z,0
2016-12-31T01:53:32.820Z,0
2016-12-31T01:54:32.799Z,0
2016-12-31T01:55:32.768Z,0
2016-12-31T01:56:32.753Z,0
2016-12-31T01:57:32.732Z,0
2016-12-31T01:58:32.730Z,0
2016-12-31T01:59:32.683Z,0
2016-12-31T02:00:32.650Z,0
2016-12-31T02:01:32.636Z,0
2016-12-31T02:02:32.616Z,0
2016-12-31T02:03:32.583Z,0
2016-12-31T02:04:32.557Z,0
2016-12-31T02:05:32.533Z,0
2016-12-31T02:06:32.516Z,0
2016-12-31T02:07:32.491Z,0
2016-12-31T02:08:32.511Z,0
2016-12-31T02:09:32.436Z,0
2016-12-31T02:10:32.413Z,0
2016-12-31T02:11:32.779Z,0
2016-12-31T02:12:32.368Z,0
2016-12-31T02:13:32.343Z,0
2016-12-31T02:14:32.317Z,0
2016-12-31T02:15:32.301Z,0
2016-12-31T02:16:32.265Z,0
2016-12-31T02:17:32.659Z,0
2016-12-31T02:18:32.218Z,0
2016-12-31T02:19:32.205Z,0
2016-12-31T02:20:32.193Z,0
2016-12-31T02:21:32.153Z,0
2016-12-31T02:22:32.120Z,0
2016-12-31T02:23:32.100Z,0
2016-12-31T02:24:32.075Z,0
2016-12-31T02:25:32.044Z,0
2016-12-31T02:26:32.031Z,0
2016-12-31T02:27:31.994Z,0
2016-12-31T02:28:31.980Z,0
2016-12-31T02:29:31.950Z,0
2016-12-31T02:30:31.921Z,0
2016-12-31T02:31:31.905Z,0
2016-12-31T02:32:31.886Z,0
2016-12-31T02:33:31.855Z,0
2016-12-31T02:34:31.828Z,0
2016-12-31T02:35:31.802Z,0
2016-12-31T02:36:31.817Z,0
2016-12-31T02:37:31.776Z,0
2016-12-31T02:38:31.735Z,0
2016-12-31T02:39:31.705Z,0
2016-12-31T02:40:31.680Z,0
2016-12-31T02:41:32.059Z,0
2016-12-31T02:42:46.937Z,0
2016-12-31T02:43:31.609Z,0
2016-12-31T02:44:31.585Z,0
2016-12-31T02:45:31.560Z,0
2016-12-31T02:46:31.536Z,0
2016-12-31T02:47:31.507Z,0
2016-12-31T02:48:31.490Z,0
2016-12-31T02:49:31.464Z,0
2016-12-31T02:50:31.829Z,0
2016-12-31T02:51:31.419Z,0
2016-12-31T02:52:31.788Z,0
2016-12-31T02:53:31.362Z,0
2016-12-31T02:54:31.343Z,0
2016-12-31T02:55:31.710Z,0
2016-12-31T02:56:31.286Z,0
2016-12-31T02:57:31.265Z,0
2016-12-31T02:58:31.238Z,0
2016-12-31T02:59:31.211Z,0
2016-12-31T03:00:31.189Z,0
2016-12-31T03:01:31.174Z,0
2016-12-31T03:02:31.142Z,0
2016-12-31T03:03:31.118Z,0
2016-12-31T03:04:31.092Z,0
2016-12-31T03:05:31.071Z,0
2016-12-31T03:06:31.040Z,0
2016-12-31T03:07:31.016Z,0
2016-12-31T03:08:30.992Z,0
2016-12-31T03:09:30.977Z,0
2016-12-31T03:10:30.939Z,0
2016-12-31T03:11:30.919Z,0
2016-12-31T03:12:30.895Z,0
2016-12-31T03:13:30.875Z,0
2016-12-31T03:14:30.846Z,0
2016-12-31T03:15:30.816Z,0
2016-12-31T03:16:30.850Z,0
2016-12-31T03:17:30.768Z,0
2016-12-31T03:18:30.749Z,0
2016-12-31T03:19:31.128Z,0
2016-12-31T03:20:30.749Z,0
2016-12-31T03:21:30.674Z,0
2016-12-31T03:22:30.646Z,0
2016-12-31T03:23:30.622Z,0
2016-12-31T03:24:30.605Z,0
2016-12-31T03:25:30.572Z,0
2016-12-31T03:26:30.547Z,0
2016-12-31T03:27:30.924Z,0
2016-12-31T03:28:30.501Z,0
2016-12-31T03:29:30.477Z,0
2016-12-31T03:30:30.450Z,0
2016-12-31T03:31:30.426Z,0
2016-12-31T03:32:30.418Z,0
2016-12-31T03:33:30.388Z,0
2016-12-31T03:34:30.347Z,0
2016-12-31T03:35:30.331Z,0
2016-12-31T03:36:30.301Z,0
2016-12-31T03:37:30.280Z,0
2016-12-31T03:38:30.250Z,0
2016-12-31T03:39:30.252Z,0
2016-12-31T03:40:30.233Z,0
2016-12-31T03:41:30.230Z,0
2016-12-31T03:42:30.155Z,0
2016-12-31T03:43:30.130Z,0
2016-12-31T03:44:30.104Z,0
2016-12-31T03:45:30.109Z,0
2016-12-31T03:46:30.059Z,0
2016-12-31T03:47:30.030Z,0
2016-12-31T03:48:30.008Z,0
2016-12-31T03:49:29.982Z,0
2016-12-31T03:50:29.954Z,0
2016-12-31T03:51:29.941Z,0
2016-12-31T03:52:29.915Z,0
2016-12-31T03:53:29.888Z,0
2016-12-31T03:54:29.860Z,0
2016-12-31T03:55:29.835Z,0
2016-12-31T03:56:29.807Z,0
2016-12-31T03:57:29.794Z,0
2016-12-31T03:58:29.760Z,0
2016-12-31T03:59:29.739Z,0
2016-12-31T04:00:29.720Z,0
2016-12-31T04:01:29.680Z,0
2016-12-31T04:02:30.063Z,0
2016-12-31T04:03:29.630Z,0
2016-12-31T04:04:29.607Z,0
2016-12-31T04:05:29.587Z,0
2016-12-31T04:06:29.570Z,0
2016-12-31T04:07:29.532Z,0
2016-12-31T04:08:29.512Z,0
2016-12-31T04:09:29.891Z,0
2016-12-31T04:10:29.478Z,0
2016-12-31T04:11:29.851Z,0
2016-12-31T04:12:29.814Z,0
2016-12-31T04:13:29.386Z,0
2016-12-31T04:14:29.369Z,0
2016-12-31T04:15:29.341Z,0
2016-12-31T04:16:29.311Z,0
2016-12-31T04:17:29.289Z,0
2016-12-31T04:18:29.266Z,0
2016-12-31T04:19:29.237Z,0
2016-12-31T04:20:29.215Z,0
2016-12-31T04:21:29.187Z,0
2016-12-31T04:22:29.160Z,0
2016-12-31T04:23:29.139Z,0
2016-12-31T04:24:29.114Z,0
2016-12-31T04:25:29.086Z,0
2016-12-31T04:26:29.064Z,0
2016-12-31T04:27:29.044Z,0
2016-12-31T04:28:29.014Z,0
2016-12-31T04:29:28.985Z,0
2016-12-31T04:30:28.978Z,0
2016-12-31T04:31:28.936Z,0
2016-12-31T04:32:28.910Z,0
2016-12-31T04:33:28.885Z,0
2016-12-31T04:34:28.864Z,0
2016-12-31T04:35:28.835Z,0
2016-12-31T04:36:28.813Z,0
2016-12-31T04:37:28.784Z,0
2016-12-31T04:38:28.764Z,0
2016-12-31T04:39:28.734Z,0
2016-12-31T04:40:28.738Z,0
2016-12-31T04:41:28.703Z,0
2016-12-31T04:42:28.658Z,0
2016-12-31T04:43:28.636Z,0
2016-12-31T04:44:28.621Z,0
2016-12-31T04:45:28.586Z,0
2016-12-31T04:46:28.558Z,0
2016-12-31T04:47:28.538Z,0
2016-12-31T04:48:28.508Z,0
2016-12-31T04:49:28.485Z,0
2016-12-31T04:50:28.461Z,0
2016-12-31T04:51:28.435Z,0
2016-12-31T04:52:28.411Z,0
2016-12-31T04:53:28.393Z,0
2016-12-31T04:54:28.359Z,0
2016-12-31T04:55:28.728Z,0
2016-12-31T04:56:28.309Z,0
2016-12-31T04:57:28.691Z,0
2016-12-31T04:58:28.258Z,0
2016-12-31T04:59:28.237Z,0
2016-12-31T05:00:28.265Z,0
2016-12-31T05:01:28.188Z,0
2016-12-31T05:02:28.159Z,0
2016-12-31T05:03:28.134Z,0
2016-12-31T05:04:28.510Z,0
2016-12-31T05:05:28.081Z,0
2016-12-31T05:06:28.062Z,0
2016-12-31T05:07:28.061Z,0
2016-12-31T05:08:28.016Z,0
2016-12-31T05:09:27.998Z,0
2016-12-31T05:10:27.970Z,0
2016-12-31T05:11:27.959Z,0
2016-12-31T05:12:27.911Z,0
2016-12-31T05:13:27.883Z,0
2016-12-31T05:14:27.864Z,0
2016-12-31T05:15:27.832Z,0
2016-12-31T05:16:27.809Z,0
2016-12-31T05:17:27.786Z,0
2016-12-31T05:18:27.760Z,0
2016-12-31T05:19:27.738Z,0
2016-12-31T05:20:27.710Z,0
2016-12-31T05:21:27.683Z,0
2016-12-31T05:22:27.665Z,0
2016-12-31T05:23:27.635Z,0
2016-12-31T05:24:27.619Z,0
2016-12-31T05:25:27.588Z,0
2016-12-31T05:26:27.595Z,0
2016-12-31T05:27:27.552Z,0
2016-12-31T05:28:27.514Z,0
2016-12-31T05:29:27.510Z,0
2016-12-31T05:30:27.470Z,0
2016-12-31T05:31:27.446Z,0
2016-12-31T05:32:27.414Z,0
2016-12-31T05:33:27.392Z,0
2016-12-31T05:34:27.366Z,0
2016-12-31T05:35:27.340Z,0
2016-12-31T05:36:27.711Z,0
2016-12-31T05:37:27.285Z,0
2016-12-31T05:38:27.266Z,0
2016-12-31T05:39:27.238Z,0
2016-12-31T05:40:27.215Z,0
2016-12-31T05:41:27.183Z,0
2016-12-31T05:42:27.168Z,0
2016-12-31T05:43:27.138Z,0
2016-12-31T05:44:27.116Z,0
2016-12-31T05:45:27.083Z,0
2016-12-31T05:46:27.060Z,0
2016-12-31T05:47:27.045Z,0
2016-12-31T05:48:27.006Z,0
2016-12-31T05:49:27.388Z,0
2016-12-31T05:50:26.965Z,0
2016-12-31T05:51:26.935Z,0
2016-12-31T05:52:27.307Z,0
2016-12-31T05:53:26.883Z,0
2016-12-31T05:54:27.261Z,0
2016-12-31T05:55:26.839Z,0
2016-12-31T05:56:26.816Z,0
2016-12-31T05:57:26.785Z,0
2016-12-31T05:58:26.765Z,0
2016-12-31T05:59:26.736Z,0
2016-12-31T06:00:26.708Z,0
2016-12-31T06:01:26.719Z,0
2016-12-31T06:02:26.669Z,0
2016-12-31T06:03:26.636Z,0
2016-12-31T06:04:26.615Z,0
2016-12-31T06:05:26.591Z,0
2016-12-31T06:06:26.564Z,0
2016-12-31T06:07:26.553Z,0
2016-12-31T06:08:26.515Z,0
2016-12-31T06:09:26.489Z,0
2016-12-31T06:10:26.460Z,0
2016-12-31T06:11:26.433Z,0
2016-12-31T06:12:26.416Z,0
2016-12-31T06:13:26.385Z,0
2016-12-31T06:14:26.359Z,0
2016-12-31T06:15:26.337Z,0
2016-12-31T06:16:26.321Z,0
2016-12-31T06:17:26.309Z,0
2016-12-31T06:18:26.270Z,0
2016-12-31T06:19:26.236Z,0
2016-12-31T06:20:26.224Z,0
2016-12-31T06:21:26.188Z,0
2016-12-31T06:22:26.176Z,0
2016-12-31T06:23:26.147Z,0
2016-12-31T06:24:26.114Z,0
2016-12-31T06:25:26.090Z,0
2016-12-31T06:26:26.061Z,0
2016-12-31T06:27:26.050Z,0
2016-12-31T06:28:26.008Z,0
2016-12-31T06:29:25.986Z,0
2016-12-31T06:30:25.973Z,0
2016-12-31T06:31:25.945Z,0
2016-12-31T06:32:25.916Z,0
2016-12-31T06:33:25.889Z,0
2016-12-31T06:34:25.869Z,0
2016-12-31T06:35:25.838Z,0
2016-12-31T06:36:25.814Z,0
2016-12-31T06:37:25.788Z,0
2016-12-31T06:38:25.770Z,0
2016-12-31T06:39:26.142Z,0
2016-12-31T06:40:25.712Z,0
2016-12-31T06:41:25.689Z,0
2016-12-31T06:42:25.662Z,0
2016-12-31T06:43:25.848Z,0
2016-12-31T06:44:25.618Z,0
2016-12-31T06:45:25.894Z,0
2016-12-31T06:46:25.567Z,0
2016-12-31T06:47:25.537Z,0
2016-12-31T06:48:25.516Z,0
2016-12-31T06:49:25.489Z,0
2016-12-31T06:50:25.464Z,0
2016-12-31T06:51:25.441Z,0
2016-12-31T06:52:25.418Z,0
2016-12-31T06:53:25.387Z,0
2016-12-31T06:54:25.366Z,0
2016-12-31T06:55:25.335Z,0
2016-12-31T06:56:25.317Z,0
2016-12-31T06:57:25.291Z,0
2016-12-31T06:58:25.273Z,4
2016-12-31T06:59:25.257Z,0
2016-12-31T07:00:25.692Z,0
2016-12-31T07:01:25.188Z,4
2016-12-31T07:02:25.565Z,0
2016-12-31T07:03:25.156Z,4
2016-12-31T07:04:25.117Z,4
2016-12-31T07:05:25.094Z,4
2016-12-31T07:06:25.093Z,4
2016-12-31T07:07:25.047Z,4
2016-12-31T07:08:25.015Z,8
2016-12-31T07:09:25.014Z,8
2016-12-31T07:10:24.990Z,12
2016-12-31T07:11:24.943Z,12
2016-12-31T07:12:24.915Z,12
2016-12-31T07:13:25.293Z,20
2016-12-31T07:14:24.863Z,20
2016-12-31T07:15:24.848Z,24
2016-12-31T07:16:24.847Z,24
2016-12-31T07:17:24.791Z,32
2016-12-31T07:18:24.763Z,36
2016-12-31T07:19:24.746Z,40
2016-12-31T07:20:24.721Z,44
2016-12-31T07:21:24.695Z,52
2016-12-31T07:22:24.675Z,60
2016-12-31T07:23:24.658Z,64
2016-12-31T07:24:24.666Z,72
2016-12-31T07:25:24.632Z,80
2016-12-31T07:26:24.570Z,88
2016-12-31T07:27:24.563Z,96
2016-12-31T07:28:24.520Z,108
2016-12-31T07:29:24.516Z,120
2016-12-31T07:30:24.470Z,128
2016-12-31T07:31:24.446Z,140
2016-12-31T07:32:24.428Z,152
2016-12-31T07:33:24.399Z,160
2016-12-31T07:34:24.369Z,172
2016-12-31T07:35:24.344Z,184
2016-12-31T07:36:24.716Z,196
2016-12-31T07:37:24.296Z,212
2016-12-31T07:38:24.275Z,216
2016-12-31T07:39:24.247Z,232
2016-12-31T07:40:24.222Z,244
2016-12-31T07:41:24.195Z,264
2016-12-31T07:42:24.173Z,284
2016-12-31T07:43:24.183Z,296
2016-12-31T07:44:24.569Z,308
2016-12-31T07:45:24.097Z,332
2016-12-31T07:46:24.086Z,344
2016-12-31T07:47:24.042Z,356
2016-12-31T07:48:24.019Z,380
2016-12-31T07:49:24.002Z,404
2016-12-31T07:50:23.974Z,420
2016-12-31T07:51:23.950Z,444
2016-12-31T07:52:23.927Z,472
2016-12-31T07:53:23.897Z,496
2016-12-31T07:54:23.891Z,524
2016-12-31T07:55:23.870Z,548
2016-12-31T07:56:23.828Z,576
2016-12-31T07:57:23.802Z,600
2016-12-31T07:58:23.772Z,632
2016-12-31T07:59:23.747Z,664
2016-12-31T08:00:23.723Z,700
2016-12-31T08:01:23.696Z,720
2016-12-31T08:02:23.696Z,756
2016-12-31T08:03:24.056Z,772
2016-12-31T08:04:23.632Z,792
2016-12-31T08:05:23.597Z,808
2016-12-31T08:06:23.974Z,832
2016-12-31T08:07:23.557Z,876
2016-12-31T08:08:23.528Z,924
2016-12-31T08:09:23.504Z,940
2016-12-31T08:10:23.484Z,988
2016-12-31T08:11:23.462Z,956
2016-12-31T08:12:23.425Z,1024
2016-12-31T08:13:23.406Z,1048
2016-12-31T08:14:23.384Z,1088
2016-12-31T08:15:23.355Z,1104
2016-12-31T08:16:23.333Z,1120
2016-12-31T08:17:23.309Z,1192
2016-12-31T08:18:23.286Z,1276
2016-12-31T08:19:23.258Z,1332
2016-12-31T08:20:23.232Z,1444
2016-12-31T08:21:23.211Z,1496
2016-12-31T08:22:23.195Z,1516
2016-12-31T08:23:23.173Z,1632
2016-12-31T08:24:23.544Z,1688
2016-12-31T08:25:23.116Z,1724
2016-12-31T08:26:23.094Z,1836
2016-12-31T08:27:23.061Z,1844
2016-12-31T08:28:23.038Z,1972
2016-12-31T08:29:23.019Z,2068
2016-12-31T08:30:22.999Z,2180
2016-12-31T08:31:22.975Z,2256
2016-12-31T08:32:22.971Z,2164
2016-12-31T08:33:22.919Z,2348
2016-12-31T08:34:22.934Z,2260
2016-12-31T08:35:22.883Z,2240
2016-12-31T08:36:22.857Z,2456
2016-12-31T08:37:22.891Z,2488
2016-12-31T08:38:23.203Z,2552
2016-12-31T08:39:22.778Z,2556
2016-12-31T08:40:22.753Z,2544
2016-12-31T08:41:23.229Z,2552
2016-12-31T08:42:22.707Z,2668
2016-12-31T08:43:22.882Z,2592
2016-12-31T08:44:22.654Z,2632
2016-12-31T08:45:22.632Z,2528
2016-12-31T08:46:22.616Z,2280
2016-12-31T08:47:22.587Z,2552
2016-12-31T08:48:22.560Z,2652
2016-12-31T08:49:22.537Z,2660
2016-12-31T08:50:22.520Z,2812
2016-12-31T08:51:22.494Z,2992
2016-12-31T08:52:22.468Z,3144
2016-12-31T08:53:22.445Z,3164
2016-12-31T08:54:22.422Z,3408
2016-12-31T08:55:22.394Z,3324
2016-12-31T08:56:22.380Z,3464
2016-12-31T08:57:22.347Z,3456
2016-12-31T08:58:22.328Z,3404
2016-12-31T08:59:22.302Z,3512
2016-12-31T09:00:22.274Z,3796
2016-12-31T09:01:22.254Z,3476
2016-12-31T09:02:22.226Z,3568
2016-12-31T09:03:22.203Z,4024
2016-12-31T09:04:22.582Z,3748
2016-12-31T09:05:22.958Z,3804
2016-12-31T09:06:22.142Z,3660
2016-12-31T09:07:22.112Z,3316
2016-12-31T09:08:22.091Z,3668
2016-12-31T09:09:22.458Z,3704
2016-12-31T09:10:22.043Z,3548
2016-12-31T09:11:22.021Z,3904
2016-12-31T09:12:22.003Z,4172
2016-12-31T09:13:21.979Z,4384
2016-12-31T09:14:21.955Z,4080
2016-12-31T09:15:21.926Z,3844
2016-12-31T09:16:21.905Z,4008
2016-12-31T09:17:21.877Z,4208
2016-12-31T09:18:21.858Z,3744
2016-12-31T09:19:21.840Z,4480
2016-12-31T09:20:21.826Z,4276
2016-12-31T09:21:21.802Z,4484
2016-12-31T09:22:22.567Z,4360
2016-12-31T09:23:22.141Z,4480
2016-12-31T09:24:21.722Z,4004
2016-12-31T09:25:21.697Z,4188
2016-12-31T09:26:21.675Z,3832
2016-12-31T09:27:21.699Z,4320
2016-12-31T09:28:21.635Z,4688
2016-12-31T09:29:21.604Z,4808
2016-12-31T09:30:21.592Z,5004
2016-12-31T09:31:21.555Z,4896
2016-12-31T09:32:21.530Z,5220
2016-12-31T09:33:21.516Z,5664
2016-12-31T09:34:21.491Z,5860
2016-12-31T09:35:21.466Z,5452
2016-12-31T09:36:21.441Z,6260
2016-12-31T09:37:21.426Z,6360
2016-12-31T09:38:21.396Z,6064
2016-12-31T09:39:21.377Z,5416
2016-12-31T09:40:21.350Z,5912
2016-12-31T09:41:21.330Z,5872
2016-12-31T09:42:21.308Z,5872
2016-12-31T09:43:21.286Z,6008
2016-12-31T09:44:21.258Z,6324
2016-12-31T09:45:21.237Z,7712
2016-12-31T09:46:21.219Z,7936
2016-12-31T09:47:21.222Z,7172
2016-12-31T09:48:21.569Z,6896
2016-12-31T09:49:21.148Z,7428
2016-12-31T09:50:21.128Z,7016
2016-12-31T09:51:21.105Z,6388
2016-12-31T09:52:21.085Z,5704
2016-12-31T09:53:21.060Z,4972
2016-12-31T09:54:21.035Z,4996
2016-12-31T09:55:21.011Z,4964
2016-12-31T09:56:20.992Z,4848
2016-12-31T09:57:20.995Z,4544
2016-12-31T09:58:20.947Z,4248
2016-12-31T09:59:20.928Z,4584
2016-12-31T10:00:20.900Z,4300
2016-12-31T10:01:20.883Z,3572
2016-12-31T10:02:21.261Z,3372
2016-12-31T10:03:20.837Z,2972
2016-12-31T10:04:20.851Z,2828
2016-12-31T10:05:20.793Z,2732
2016-12-31T10:06:20.771Z,2756
2016-12-31T10:07:20.759Z,2848
2016-12-31T10:08:20.735Z,2760
2016-12-31T10:09:20.705Z,2780
2016-12-31T10:10:20.680Z,2780
2016-12-31T10:11:20.662Z,2688
2016-12-31T10:12:20.640Z,2780
2016-12-31T10:13:20.617Z,2672
2016-12-31T10:14:20.626Z,2748
2016-12-31T10:15:20.570Z,2932
2016-12-31T10:16:20.548Z,2940
2016-12-31T10:17:20.525Z,2868
2016-12-31T10:18:20.510Z,2864
2016-12-31T10:19:20.481Z,2836
2016-12-31T10:20:20.457Z,2828
2016-12-31T10:21:20.433Z,2756
2016-12-31T10:22:20.807Z,2940
2016-12-31T10:23:20.388Z,3184
2016-12-31T10:24:20.365Z,3168
2016-12-31T10:25:20.366Z,3284
2016-12-31T10:26:20.323Z,3300
2016-12-31T10:27:20.302Z,3296
2016-12-31T10:28:20.278Z,3148
2016-12-31T10:29:20.255Z,3304
2016-12-31T10:30:20.234Z,3472
2016-12-31T10:31:20.224Z,3704
2016-12-31T10:32:20.194Z,3760
2016-12-31T10:33:20.177Z,3656
2016-12-31T10:34:20.141Z,3712
2016-12-31T10:35:20.517Z,3592
2016-12-31T10:36:20.096Z,3764
2016-12-31T10:37:20.078Z,3996
2016-12-31T10:38:20.054Z,3904
2016-12-31T10:39:20.030Z,3916
2016-12-31T10:40:20.043Z,3744
2016-12-31T10:41:19.979Z,3636
2016-12-31T10:42:19.962Z,3348
2016-12-31T10:43:20.138Z,3532
2016-12-31T10:44:19.918Z,3588
2016-12-31T10:45:19.902Z,3664
2016-12-31T10:46:19.872Z,3696
2016-12-31T10:47:19.853Z,3868
2016-12-31T10:48:19.829Z,4128
2016-12-31T10:49:19.807Z,4324
2016-12-31T10:50:19.781Z,4076
2016-12-31T10:51:19.758Z,4680
2016-12-31T10:52:19.729Z,4296
2016-12-31T10:53:19.727Z,4164
2016-12-31T10:54:19.694Z,4252
2016-12-31T10:55:19.674Z,4116
2016-12-31T10:56:19.644Z,4016
2016-12-31T10:57:20.021Z,4076
2016-12-31T10:58:19.606Z,4348
2016-12-31T10:59:19.577Z,4364
2016-12-31T11:00:19.579Z,4904
2016-12-31T11:01:19.534Z,5356
2016-12-31T11:02:19.520Z,5432
2016-12-31T11:03:19.488Z,4504
2016-12-31T11:04:19.474Z,3208
2016-12-31T11:05:19.448Z,3024
2016-12-31T11:06:19.426Z,2940
2016-12-31T11:07:19.398Z,2948
2016-12-31T11:08:19.377Z,2616
2016-12-31T11:09:19.429Z,2868
2016-12-31T11:10:19.332Z,2612
2016-12-31T11:11:19.315Z,2604
2016-12-31T11:12:19.290Z,3072
2016-12-31T11:13:19.264Z,3096
2016-12-31T11:14:19.240Z,3072
2016-12-31T11:15:19.224Z,2836
2016-12-31T11:16:19.224Z,2368
2016-12-31T11:17:19.184Z,2204
2016-12-31T11:18:19.150Z,2332
2016-12-31T11:19:19.129Z,2532
2016-12-31T11:20:19.107Z,2736
2016-12-31T11:21:19.087Z,2824
2016-12-31T11:22:19.062Z,2764
2016-12-31T11:23:19.052Z,2892
2016-12-31T11:24:19.023Z,2836
2016-12-31T11:25:19.012Z,2524
2016-12-31T11:26:18.981Z,2548
2016-12-31T11:27:18.961Z,2488
2016-12-31T11:28:18.938Z,2684
2016-12-31T11:29:18.909Z,2656
2016-12-31T11:30:18.883Z,2652
2016-12-31T11:31:18.868Z,2512
2016-12-31T11:32:18.870Z,2504
2016-12-31T11:33:18.821Z,2388
2016-12-31T11:34:18.809Z,2500
2016-12-31T11:35:18.827Z,2584
2016-12-31T11:36:19.146Z,2724
2016-12-31T11:37:18.736Z,2628
2016-12-31T11:38:18.703Z,2736
2016-12-31T11:39:18.681Z,2856
2016-12-31T11:40:18.687Z,2968
2016-12-31T11:41:19.043Z,3084
2016-12-31T11:42:18.620Z,3212
2016-12-31T11:43:18.639Z,3372
2016-12-31T11:44:18.583Z,3584
2016-12-31T11:45:18.555Z,3436
2016-12-31T11:46:18.967Z,3392
2016-12-31T11:47:18.507Z,3492
2016-12-31T11:48:18.489Z,3444
2016-12-31T11:49:18.460Z,3308
2016-12-31T11:50:18.453Z,3512
2016-12-31T11:51:18.420Z,3588
2016-12-31T11:52:18.410Z,3248
2016-12-31T11:53:18.387Z,3264
2016-12-31T11:54:18.604Z,3240
2016-12-31T11:55:18.328Z,3288
2016-12-31T11:56:18.312Z,3092
2016-12-31T11:57:18.301Z,2888
2016-12-31T11:58:18.262Z,2884
2016-12-31T11:59:18.246Z,2592
2016-12-31T12:00:18.698Z,2740
2016-12-31T12:01:18.194Z,2452
2016-12-31T12:02:18.173Z,2524
2016-12-31T12:03:18.161Z,2624
2016-12-31T12:04:18.128Z,2820
2016-12-31T12:05:18.102Z,3036
2016-12-31T12:06:18.086Z,2872
2016-12-31T12:07:18.064Z,2772
2016-12-31T12:08:18.048Z,2504
2016-12-31T12:09:18.021Z,2556
2016-12-31T12:10:17.996Z,2556
2016-12-31T12:11:17.974Z,2544
2016-12-31T12:12:17.952Z,2452
2016-12-31T12:13:17.932Z,2176
2016-12-31T12:14:17.922Z,2376
2016-12-31T12:15:17.888Z,2356
2016-12-31T12:16:17.914Z,2220
2016-12-31T12:17:17.839Z,2296
2016-12-31T12:18:17.821Z,2284
2016-12-31T12:19:17.793Z,2284
2016-12-31T12:20:17.829Z,2200
2016-12-31T12:21:17.764Z,2248
2016-12-31T12:22:17.734Z,2200
2016-12-31T12:23:18.111Z,2192
2016-12-31T12:24:17.691Z,2168
2016-12-31T12:25:17.667Z,2048
2016-12-31T12:26:17.646Z,1976
2016-12-31T12:27:17.631Z,2080
2016-12-31T12:28:17.596Z,2160
2016-12-31T12:29:17.579Z,2576
2016-12-31T12:30:17.556Z,2708
2016-12-31T12:31:17.532Z,2580
2016-12-31T12:32:17.519Z,2960
2016-12-31T12:33:17.499Z,2904
2016-12-31T12:34:17.461Z,2964
2016-12-31T12:35:17.440Z,2932
2016-12-31T12:36:17.422Z,2776
2016-12-31T12:37:17.446Z,2820
2016-12-31T12:38:17.416Z,2992
2016-12-31T12:39:17.362Z,3160
2016-12-31T12:40:17.336Z,3204
2016-12-31T12:41:17.717Z,3468
2016-12-31T12:42:17.290Z,3924
2016-12-31T12:43:17.294Z,4068
2016-12-31T12:44:17.263Z,3888
2016-12-31T12:45:17.226Z,3888
2016-12-31T12:46:17.235Z,3808
2016-12-31T12:47:17.179Z,3852
2016-12-31T12:48:17.165Z,3760
2016-12-31T12:49:17.135Z,3660
2016-12-31T12:50:17.117Z,3652
2016-12-31T12:51:17.092Z,3520
2016-12-31T12:52:17.069Z,3568
2016-12-31T12:53:17.051Z,4028
2016-12-31T12:54:17.026Z,4432
2016-12-31T12:55:17.006Z,4100
2016-12-31T12:56:16.983Z,3848
2016-12-31T12:57:16.958Z,3832
2016-12-31T12:58:17.335Z,3852
2016-12-31T12:59:16.917Z,3908
2016-12-31T13:00:16.891Z,3988
2016-12-31T13:01:16.901Z,3828
2016-12-31T13:02:17.243Z,3712
2016-12-31T13:03:17.231Z,3492
2016-12-31T13:04:16.805Z,3476
2016-12-31T13:05:16.794Z,3636
2016-12-31T13:06:16.762Z,3652
2016-12-31T13:07:16.745Z,3492
2016-12-31T13:08:16.729Z,3432
2016-12-31T13:09:16.696Z,3512
2016-12-31T13:10:16.672Z,3504
2016-12-31T13:11:16.653Z,3440
2016-12-31T13:12:16.632Z,3404
2016-12-31T13:13:16.610Z,3636
2016-12-31T13:14:16.596Z,3564
2016-12-31T13:15:16.967Z,3416
2016-12-31T13:16:16.554Z,3364
2016-12-31T13:17:16.584Z,3252
2016-12-31T13:18:16.504Z,3252
2016-12-31T13:19:16.480Z,3448
2016-12-31T13:20:16.459Z,3580
2016-12-31T13:21:16.438Z,3596
2016-12-31T13:22:16.470Z,3416
2016-12-31T13:23:16.395Z,3216
2016-12-31T13:24:16.375Z,3188
2016-12-31T13:25:16.356Z,3248
2016-12-31T13:26:16.339Z,3332
2016-12-31T13:27:16.313Z,3368
2016-12-31T13:28:16.288Z,3368
2016-12-31T13:29:16.270Z,3220
2016-12-31T13:30:16.253Z,3116
2016-12-31T13:31:16.227Z,3084
2016-12-31T13:32:16.206Z,3112
2016-12-31T13:33:16.576Z,3112
2016-12-31T13:34:16.166Z,2948
2016-12-31T13:35:16.145Z,2840
2016-12-31T13:36:16.123Z,2720
2016-12-31T13:37:16.101Z,2620
2016-12-31T13:38:16.075Z,2672
2016-12-31T13:39:16.059Z,2636
2016-12-31T13:40:16.036Z,2528
2016-12-31T13:41:16.018Z,2584
2016-12-31T13:42:16.002Z,2728
2016-12-31T13:43:16.011Z,2784
2016-12-31T13:44:15.951Z,2744
2016-12-31T13:45:15.975Z,2676
2016-12-31T13:46:15.918Z,2608
2016-12-31T13:47:15.901Z,2456
2016-12-31T13:48:16.271Z,2472
2016-12-31T13:49:15.881Z,2552
2016-12-31T13:50:15.848Z,2500
2016-12-31T13:51:15.827Z,2356
2016-12-31T13:52:15.822Z,2292
2016-12-31T13:53:16.167Z,2260
2016-12-31T13:54:15.742Z,2196
2016-12-31T13:55:15.786Z,2204
2016-12-31T13:56:15.705Z,2168
2016-12-31T13:57:15.682Z,2048
2016-12-31T13:58:16.124Z,1908
2016-12-31T13:59:15.661Z,1900
2016-12-31T14:00:15.642Z,1992
2016-12-31T14:01:15.836Z,1956
2016-12-31T14:02:15.577Z,1892
2016-12-31T14:03:16.397Z,1836
2016-12-31T14:04:15.547Z,1764